sensor_id;sensor_type;location;lat;lon;timestamp;pressure;altitude;pressure_sealevel;temperature;humidity
52291;BME280;39663;45.432;28.050;2023-04-08T00:06:06;101755.88;;;14.40;54.36
52291;BME280;39663;45.432;28.050;2023-04-08T00:06:37;101755.11;;;14.45;54.90
52291;BME280;39663;45.432;28.050;2023-04-08T00:07:09;101755.87;;;14.49;54.75
52291;BME280;39663;45.432;28.050;2023-04-08T00:07:41;101755.39;;;14.52;54.32
52291;BME280;39663;45.432;28.050;2023-04-08T00:08:12;101755.08;;;14.56;54.21
52291;BME280;39663;45.432;28.050;2023-04-08T00:08:44;101756.68;;;14.79;54.46
52291;BME280;39663;45.432;28.050;2023-04-08T00:09:15;101753.71;;;14.61;54.29
52291;BME280;39663;45.432;28.050;2023-04-08T00:09:46;101754.10;;;14.64;54.39
52291;BME280;39663;45.432;28.050;2023-04-08T00:10:18;101754.20;;;14.65;53.91
52291;BME280;39663;45.432;28.050;2023-04-08T00:10:50;101752.00;;;14.70;54.05
52291;BME280;39663;45.432;28.050;2023-04-08T00:11:21;101755.14;;;14.66;54.00
52291;BME280;39663;45.432;28.050;2023-04-08T00:11:52;101754.24;;;14.68;54.20
52291;BME280;39663;45.432;28.050;2023-04-08T00:12:24;101753.29;;;14.70;54.51
52291;BME280;39663;45.432;28.050;2023-04-08T00:12:55;101753.38;;;14.71;53.70
52291;BME280;39663;45.432;28.050;2023-04-08T00:13:26;101750.89;;;14.91;54.20
52291;BME280;39663;45.432;28.050;2023-04-08T00:13:59;101751.24;;;14.73;54.05
52291;BME280;39663;45.432;28.050;2023-04-08T00:14:30;101750.90;;;14.68;53.58
52291;BME280;39663;45.432;28.050;2023-04-08T00:15:02;101750.72;;;14.74;53.83
52291;BME280;39663;45.432;28.050;2023-04-08T00:15:33;101751.11;;;14.49;53.92
52291;BME280;39663;45.432;28.050;2023-04-08T00:16:04;101752.19;;;14.77;54.16
52291;BME280;39663;45.432;28.050;2023-04-08T00:16:36;101751.46;;;14.73;53.81
52291;BME280;39663;45.432;28.050;2023-04-08T00:17:08;101749.71;;;14.76;53.87
52291;BME280;39663;45.432;28.050;2023-04-08T00:17:40;101749.86;;;14.52;53.69
52291;BME280;39663;45.432;28.050;2023-04-08T00:18:13;101751.57;;;14.78;53.48
52291;BME280;39663;45.432;28.050;2023-04-08T00:18:44;101753.02;;;14.59;53.73
52291;BME280;39663;45.432;28.050;2023-04-08T00:19:16;101751.30;;;14.78;53.51
52291;BME280;39663;45.432;28.050;2023-04-08T00:19:47;101752.80;;;14.83;53.68
52291;BME280;39663;45.432;28.050;2023-04-08T00:20:19;101750.82;;;14.79;53.53
52291;BME280;39663;45.432;28.050;2023-04-08T00:20:50;101749.80;;;14.79;53.69
52291;BME280;39663;45.432;28.050;2023-04-08T00:21:22;101750.38;;;14.56;53.57
52291;BME280;39663;45.432;28.050;2023-04-08T00:21:53;101750.66;;;14.77;53.79
52291;BME280;39663;45.432;28.050;2023-04-08T00:22:24;101749.63;;;14.78;53.66
52291;BME280;39663;45.432;28.050;2023-04-08T00:22:56;101750.70;;;14.61;53.72
52291;BME280;39663;45.432;28.050;2023-04-08T00:23:27;101749.11;;;14.82;53.56
52291;BME280;39663;45.432;28.050;2023-04-08T00:23:59;101748.83;;;14.58;53.64
52291;BME280;39663;45.432;28.050;2023-04-08T00:24:30;101749.57;;;14.77;53.69
52291;BME280;39663;45.432;28.050;2023-04-08T00:25:02;101749.42;;;14.81;53.54
52291;BME280;39663;45.432;28.050;2023-04-08T00:25:33;101749.30;;;14.75;53.51
52291;BME280;39663;45.432;28.050;2023-04-08T00:26:04;101748.14;;;14.79;53.37
52291;BME280;39663;45.432;28.050;2023-04-08T00:26:36;101748.28;;;14.79;53.51
52291;BME280;39663;45.432;28.050;2023-04-08T00:27:07;101748.11;;;14.55;53.34
52291;BME280;39663;45.432;28.050;2023-04-08T00:27:39;101749.36;;;14.81;53.80
52291;BME280;39663;45.432;28.050;2023-04-08T00:28:10;101748.78;;;14.79;53.83
52291;BME280;39663;45.432;28.050;2023-04-08T00:28:41;101747.59;;;14.69;53.54
52291;BME280;39663;45.432;28.050;2023-04-08T00:29:13;101747.29;;;14.75;53.29
52291;BME280;39663;45.432;28.050;2023-04-08T00:29:44;101746.87;;;14.79;53.47
52291;BME280;39663;45.432;28.050;2023-04-08T00:30:16;101748.03;;;14.71;53.33
52291;BME280;39663;45.432;28.050;2023-04-08T00:30:48;101749.51;;;14.60;53.39
52291;BME280;39663;45.432;28.050;2023-04-08T00:31:19;101748.76;;;14.80;53.52
52291;BME280;39663;45.432;28.050;2023-04-08T00:31:50;101749.82;;;14.79;53.29
52291;BME280;39663;45.432;28.050;2023-04-08T00:32:22;101747.36;;;14.80;53.51
52291;BME280;39663;45.432;28.050;2023-04-08T00:32:53;101746.96;;;14.75;53.22
52291;BME280;39663;45.432;28.050;2023-04-08T00:33:25;101747.19;;;14.80;53.29
52291;BME280;39663;45.432;28.050;2023-04-08T00:33:57;101748.47;;;14.79;53.32
52291;BME280;39663;45.432;28.050;2023-04-08T00:34:28;101748.60;;;14.77;53.18
52291;BME280;39663;45.432;28.050;2023-04-08T00:34:59;101747.79;;;14.74;53.29
52291;BME280;39663;45.432;28.050;2023-04-08T00:35:31;101749.71;;;14.78;53.18
52291;BME280;39663;45.432;28.050;2023-04-08T00:36:02;101747.71;;;14.53;53.33
52291;BME280;39663;45.432;28.050;2023-04-08T00:36:33;101746.64;;;14.76;53.21
52291;BME280;39663;45.432;28.050;2023-04-08T00:37:05;101744.75;;;14.75;53.27
52291;BME280;39663;45.432;28.050;2023-04-08T00:37:36;101746.90;;;14.77;53.38
52291;BME280;39663;45.432;28.050;2023-04-08T00:38:08;101747.34;;;14.76;53.20
52291;BME280;39663;45.432;28.050;2023-04-08T00:38:39;101747.08;;;14.77;53.15
52291;BME280;39663;45.432;28.050;2023-04-08T00:39:11;101746.37;;;14.58;53.20
52291;BME280;39663;45.432;28.050;2023-04-08T00:39:42;101746.50;;;14.77;53.19
52291;BME280;39663;45.432;28.050;2023-04-08T00:40:13;101745.61;;;14.74;53.09
52291;BME280;39663;45.432;28.050;2023-04-08T00:40:44;101746.78;;;14.69;53.26
52291;BME280;39663;45.432;28.050;2023-04-08T00:41:16;101748.07;;;14.73;53.31
52291;BME280;39663;45.432;28.050;2023-04-08T00:41:47;101748.30;;;14.71;53.31
52291;BME280;39663;45.432;28.050;2023-04-08T00:42:19;101748.13;;;14.69;53.31
52291;BME280;39663;45.432;28.050;2023-04-08T00:42:50;101748.22;;;14.69;53.18
52291;BME280;39663;45.432;28.050;2023-04-08T00:43:22;101749.91;;;14.54;53.30
52291;BME280;39663;45.432;28.050;2023-04-08T00:43:53;101748.63;;;14.73;53.07
52291;BME280;39663;45.432;28.050;2023-04-08T00:44:24;101747.03;;;14.73;53.27
52291;BME280;39663;45.432;28.050;2023-04-08T00:44:56;101747.76;;;14.52;53.03
52291;BME280;39663;45.432;28.050;2023-04-08T00:45:27;101749.02;;;14.48;53.33
52291;BME280;39663;45.432;28.050;2023-04-08T00:45:59;101748.93;;;14.72;53.07
52291;BME280;39663;45.432;28.050;2023-04-08T00:46:30;101749.90;;;14.72;53.13
52291;BME280;39663;45.432;28.050;2023-04-08T00:47:06;101750.51;;;14.53;53.23
52291;BME280;39663;45.432;28.050;2023-04-08T00:47:37;101748.42;;;14.53;53.13
52291;BME280;39663;45.432;28.050;2023-04-08T00:48:09;101751.84;;;14.71;53.08
52291;BME280;39663;45.432;28.050;2023-04-08T00:48:40;101750.64;;;14.70;53.33
52291;BME280;39663;45.432;28.050;2023-04-08T00:49:12;101752.07;;;14.47;53.06
52291;BME280;39663;45.432;28.050;2023-04-08T00:49:44;101751.60;;;14.51;53.07
52291;BME280;39663;45.432;28.050;2023-04-08T00:50:15;101753.02;;;14.68;53.17
52291;BME280;39663;45.432;28.050;2023-04-08T00:50:46;101752.36;;;14.68;53.41
52291;BME280;39663;45.432;28.050;2023-04-08T00:51:18;101753.19;;;14.68;53.17
52291;BME280;39663;45.432;28.050;2023-04-08T00:51:50;101754.30;;;14.64;53.26
52291;BME280;39663;45.432;28.050;2023-04-08T00:52:21;101754.43;;;14.67;53.04
52291;BME280;39663;45.432;28.050;2023-04-08T00:52:52;101752.20;;;14.68;52.97
52291;BME280;39663;45.432;28.050;2023-04-08T00:53:24;101753.75;;;14.69;53.10
52291;BME280;39663;45.432;28.050;2023-04-08T00:53:55;101753.32;;;14.69;53.24
52291;BME280;39663;45.432;28.050;2023-04-08T00:54:27;101756.12;;;14.69;53.13
52291;BME280;39663;45.432;28.050;2023-04-08T00:54:58;101756.06;;;14.64;53.28
52291;BME280;39663;45.432;28.050;2023-04-08T00:55:29;101754.91;;;14.68;53.25
52291;BME280;39663;45.432;28.050;2023-04-08T00:56:01;101756.01;;;14.69;53.16
52291;BME280;39663;45.432;28.050;2023-04-08T00:56:33;101755.53;;;14.68;53.14
52291;BME280;39663;45.432;28.050;2023-04-08T00:57:05;101757.55;;;14.63;53.13
52291;BME280;39663;45.432;28.050;2023-04-08T00:57:37;101755.04;;;14.66;53.09
52291;BME280;39663;45.432;28.050;2023-04-08T00:58:08;101754.63;;;14.63;53.15
52291;BME280;39663;45.432;28.050;2023-04-08T00:58:40;101753.79;;;14.67;53.14
52291;BME280;39663;45.432;28.050;2023-04-08T00:59:11;101755.70;;;14.66;53.20
52291;BME280;39663;45.432;28.050;2023-04-08T00:59:43;101752.94;;;14.45;53.08
52291;BME280;39663;45.432;28.050;2023-04-08T01:00:14;101752.86;;;14.63;52.88
52291;BME280;39663;45.432;28.050;2023-04-08T01:00:52;101753.76;;;14.58;53.04
52291;BME280;39663;45.432;28.050;2023-04-08T01:01:35;101752.60;;;14.61;52.95
52291;BME280;39663;45.432;28.050;2023-04-08T01:02:14;101752.47;;;15.01;53.18
52291;BME280;39663;45.432;28.050;2023-04-08T01:02:53;101753.43;;;14.88;53.23
52291;BME280;39663;45.432;28.050;2023-04-08T01:03:37;101753.00;;;15.05;53.10
52291;BME280;39663;45.432;28.050;2023-04-08T01:04:20;101753.11;;;14.82;52.75
52291;BME280;39663;45.432;28.050;2023-04-08T01:05:01;101752.84;;;14.63;53.37
52291;BME280;39663;45.432;28.050;2023-04-08T01:05:38;101751.58;;;15.05;53.33
52291;BME280;39663;45.432;28.050;2023-04-08T01:06:18;101752.34;;;15.03;53.16
52291;BME280;39663;45.432;28.050;2023-04-08T01:06:57;101754.27;;;14.95;53.41
52291;BME280;39663;45.432;28.050;2023-04-08T01:07:32;101754.03;;;14.94;53.52
52291;BME280;39663;45.432;28.050;2023-04-08T01:08:06;101752.23;;;14.78;53.52
52291;BME280;39663;45.432;28.050;2023-04-08T01:08:41;101753.39;;;14.74;53.61
52291;BME280;39663;45.432;28.050;2023-04-08T01:09:13;101752.74;;;14.92;53.33
52291;BME280;39663;45.432;28.050;2023-04-08T01:09:53;101752.77;;;14.86;53.27
52291;BME280;39663;45.432;28.050;2023-04-08T01:10:27;101754.70;;;14.89;53.87
52291;BME280;39663;45.432;28.050;2023-04-08T01:11:01;101754.60;;;14.88;53.62
52291;BME280;39663;45.432;28.050;2023-04-08T01:11:34;101754.99;;;14.65;53.79
52291;BME280;39663;45.432;28.050;2023-04-08T01:12:09;101755.27;;;14.64;53.58
52291;BME280;39663;45.432;28.050;2023-04-08T01:12:49;101754.45;;;14.65;53.57
52291;BME280;39663;45.432;28.050;2023-04-08T01:13:23;101754.85;;;14.83;53.65
52291;BME280;39663;45.432;28.050;2023-04-08T01:13:57;101753.91;;;14.81;53.50
52291;BME280;39663;45.432;28.050;2023-04-08T01:14:31;101755.20;;;14.62;53.89
52291;BME280;39663;45.432;28.050;2023-04-08T01:15:06;101754.75;;;14.80;53.74
52291;BME280;39663;45.432;28.050;2023-04-08T01:15:39;101754.57;;;14.79;53.74
52291;BME280;39663;45.432;28.050;2023-04-08T01:16:15;101754.64;;;14.62;53.40
52291;BME280;39663;45.432;28.050;2023-04-08T01:16:47;101755.30;;;14.75;53.93
52291;BME280;39663;45.432;28.050;2023-04-08T01:17:19;101757.33;;;14.93;53.70
52291;BME280;39663;45.432;28.050;2023-04-08T01:17:54;101756.20;;;14.75;53.87
52291;BME280;39663;45.432;28.050;2023-04-08T01:18:26;101756.34;;;14.73;53.72
52291;BME280;39663;45.432;28.050;2023-04-08T01:18:58;101755.59;;;14.72;53.74
52291;BME280;39663;45.432;28.050;2023-04-08T01:19:33;101755.05;;;14.91;53.65
52291;BME280;39663;45.432;28.050;2023-04-08T01:20:06;101757.16;;;14.70;53.56
52291;BME280;39663;45.432;28.050;2023-04-08T01:20:40;101757.14;;;14.69;53.85
52291;BME280;39663;45.432;28.050;2023-04-08T01:21:14;101756.32;;;14.88;53.88
52291;BME280;39663;45.432;28.050;2023-04-08T01:21:46;101757.27;;;14.69;53.81
52291;BME280;39663;45.432;28.050;2023-04-08T01:22:25;101755.15;;;14.50;53.58
52291;BME280;39663;45.432;28.050;2023-04-08T01:23:04;101755.27;;;14.63;53.79
52291;BME280;39663;45.432;28.050;2023-04-08T01:23:42;101757.25;;;14.67;53.93
52291;BME280;39663;45.432;28.050;2023-04-08T01:24:22;101758.75;;;14.92;54.11
52291;BME280;39663;45.432;28.050;2023-04-08T01:25:03;101756.13;;;14.87;54.06
52291;BME280;39663;45.432;28.050;2023-04-08T01:25:36;101755.36;;;14.67;53.85
52291;BME280;39663;45.432;28.050;2023-04-08T01:26:09;101755.79;;;14.66;54.05
52291;BME280;39663;45.432;28.050;2023-04-08T01:26:42;101755.84;;;14.68;54.17
52291;BME280;39663;45.432;28.050;2023-04-08T01:27:14;101754.71;;;14.67;54.29
52291;BME280;39663;45.432;28.050;2023-04-08T01:27:48;101755.39;;;14.66;54.23
52291;BME280;39663;45.432;28.050;2023-04-08T01:28:21;101757.07;;;14.66;54.15
52291;BME280;39663;45.432;28.050;2023-04-08T01:29:00;101756.06;;;14.67;53.99
52291;BME280;39663;45.432;28.050;2023-04-08T01:29:33;101756.70;;;14.65;54.09
52291;BME280;39663;45.432;28.050;2023-04-08T01:30:08;101755.87;;;14.65;54.20
52291;BME280;39663;45.432;28.050;2023-04-08T01:30:40;101756.81;;;14.65;54.20
52291;BME280;39663;45.432;28.050;2023-04-08T01:31:12;101754.81;;;14.64;54.26
52291;BME280;39663;45.432;28.050;2023-04-08T01:31:43;101755.32;;;14.64;54.27
52291;BME280;39663;45.432;28.050;2023-04-08T01:32:17;101755.59;;;14.61;54.32
52291;BME280;39663;45.432;28.050;2023-04-08T01:32:50;101756.56;;;14.63;54.45
52291;BME280;39663;45.432;28.050;2023-04-08T01:33:23;101756.34;;;14.61;54.35
52291;BME280;39663;45.432;28.050;2023-04-08T01:33:55;101759.60;;;14.67;54.17
52291;BME280;39663;45.432;28.050;2023-04-08T01:34:29;101758.26;;;14.82;54.28
52291;BME280;39663;45.432;28.050;2023-04-08T01:35:02;101757.23;;;14.63;54.27
52291;BME280;39663;45.432;28.050;2023-04-08T01:35:35;101759.35;;;14.62;54.30
52291;BME280;39663;45.432;28.050;2023-04-08T01:36:07;101758.44;;;14.61;54.11
52291;BME280;39663;45.432;28.050;2023-04-08T01:36:40;101757.63;;;14.61;53.96
52291;BME280;39663;45.432;28.050;2023-04-08T01:37:14;101758.00;;;14.60;54.14
52291;BME280;39663;45.432;28.050;2023-04-08T01:37:49;101758.73;;;14.61;54.17
52291;BME280;39663;45.432;28.050;2023-04-08T01:38:23;101759.48;;;14.64;54.16
52291;BME280;39663;45.432;28.050;2023-04-08T01:38:55;101759.65;;;14.61;54.32
52291;BME280;39663;45.432;28.050;2023-04-08T01:39:27;101759.42;;;14.59;54.19
52291;BME280;39663;45.432;28.050;2023-04-08T01:40:01;101759.30;;;14.78;54.08
52291;BME280;39663;45.432;28.050;2023-04-08T01:40:34;101758.09;;;14.62;53.99
52291;BME280;39663;45.432;28.050;2023-04-08T01:41:08;101757.49;;;14.58;54.21
52291;BME280;39663;45.432;28.050;2023-04-08T01:41:41;101757.13;;;14.58;54.13
52291;BME280;39663;45.432;28.050;2023-04-08T01:42:13;101758.18;;;14.62;54.14
52291;BME280;39663;45.432;28.050;2023-04-08T01:42:47;101759.13;;;14.56;54.00
52291;BME280;39663;45.432;28.050;2023-04-08T01:43:20;101759.04;;;14.55;53.92
52291;BME280;39663;45.432;28.050;2023-04-08T01:43:52;101756.87;;;14.74;54.11
52291;BME280;39663;45.432;28.050;2023-04-08T01:44:25;101757.83;;;14.60;54.06
52291;BME280;39663;45.432;28.050;2023-04-08T01:44:58;101757.90;;;14.55;53.87
52291;BME280;39663;45.432;28.050;2023-04-08T01:45:30;101758.31;;;14.57;53.72
52291;BME280;39663;45.432;28.050;2023-04-08T01:46:02;101758.04;;;14.52;54.04
52291;BME280;39663;45.432;28.050;2023-04-08T01:46:34;101758.04;;;14.58;54.01
52291;BME280;39663;45.432;28.050;2023-04-08T01:47:06;101758.29;;;14.53;53.92
52291;BME280;39663;45.432;28.050;2023-04-08T01:47:39;101759.86;;;14.54;54.08
52291;BME280;39663;45.432;28.050;2023-04-08T01:48:12;101758.73;;;14.54;54.09
52291;BME280;39663;45.432;28.050;2023-04-08T01:48:44;101759.64;;;14.53;54.31
52291;BME280;39663;45.432;28.050;2023-04-08T01:49:16;101760.11;;;14.54;54.02
52291;BME280;39663;45.432;28.050;2023-04-08T01:49:49;101758.32;;;14.72;53.85
52291;BME280;39663;45.432;28.050;2023-04-08T01:50:21;101758.43;;;14.59;54.14
52291;BME280;39663;45.432;28.050;2023-04-08T01:50:55;101759.34;;;14.57;54.17
52291;BME280;39663;45.432;28.050;2023-04-08T01:51:27;101759.97;;;14.53;53.95
52291;BME280;39663;45.432;28.050;2023-04-08T01:52:00;101757.87;;;14.53;54.17
52291;BME280;39663;45.432;28.050;2023-04-08T01:52:32;101757.57;;;14.53;54.00
52291;BME280;39663;45.432;28.050;2023-04-08T01:53:05;101758.54;;;14.59;54.34
52291;BME280;39663;45.432;28.050;2023-04-08T01:53:38;101757.87;;;14.77;54.27
52291;BME280;39663;45.432;28.050;2023-04-08T01:54:10;101758.99;;;14.71;54.03
52291;BME280;39663;45.432;28.050;2023-04-08T01:54:41;101757.33;;;14.71;54.26
52291;BME280;39663;45.432;28.050;2023-04-08T01:55:13;101758.17;;;14.56;54.28
52291;BME280;39663;45.432;28.050;2023-04-08T01:55:45;101758.42;;;14.52;54.35
52291;BME280;39663;45.432;28.050;2023-04-08T01:56:17;101759.13;;;14.71;54.46
52291;BME280;39663;45.432;28.050;2023-04-08T01:56:53;101757.54;;;14.50;54.32
52291;BME280;39663;45.432;28.050;2023-04-08T01:57:27;101758.08;;;14.57;54.27
52291;BME280;39663;45.432;28.050;2023-04-08T01:58:00;101757.46;;;14.57;54.06
52291;BME280;39663;45.432;28.050;2023-04-08T01:58:37;101756.38;;;14.71;54.45
52291;BME280;39663;45.432;28.050;2023-04-08T01:59:13;101756.16;;;14.70;54.34
52291;BME280;39663;45.432;28.050;2023-04-08T01:59:48;101756.99;;;14.51;54.24
52291;BME280;39663;45.432;28.050;2023-04-08T02:00:24;101756.85;;;14.50;54.09
52291;BME280;39663;45.432;28.050;2023-04-08T02:00:57;101755.48;;;14.56;54.22
52291;BME280;39663;45.432;28.050;2023-04-08T02:01:30;101757.56;;;14.51;54.00
52291;BME280;39663;45.432;28.050;2023-04-08T02:02:05;101756.97;;;14.51;54.17
52291;BME280;39663;45.432;28.050;2023-04-08T02:02:41;101754.49;;;14.55;54.17
52291;BME280;39663;45.432;28.050;2023-04-08T02:03:16;101755.72;;;14.33;53.97
52291;BME280;39663;45.432;28.050;2023-04-08T02:03:49;101753.94;;;14.57;54.08
52291;BME280;39663;45.432;28.050;2023-04-08T02:04:21;101754.57;;;14.50;54.11
52291;BME280;39663;45.432;28.050;2023-04-08T02:04:52;101753.17;;;14.53;54.03
52291;BME280;39663;45.432;28.050;2023-04-08T02:05:24;101751.23;;;14.47;53.94
52291;BME280;39663;45.432;28.050;2023-04-08T02:05:55;101750.11;;;14.48;54.07
52291;BME280;39663;45.432;28.050;2023-04-08T02:06:27;101749.81;;;14.47;54.00
52291;BME280;39663;45.432;28.050;2023-04-08T02:07:00;101750.97;;;14.68;54.16
52291;BME280;39663;45.432;28.050;2023-04-08T02:07:32;101748.89;;;14.54;54.47
52291;BME280;39663;45.432;28.050;2023-04-08T02:08:04;101748.10;;;14.68;54.33
52291;BME280;39663;45.432;28.050;2023-04-08T02:08:35;101748.11;;;14.53;54.28
52291;BME280;39663;45.432;28.050;2023-04-08T02:09:07;101747.73;;;14.49;54.13
52291;BME280;39663;45.432;28.050;2023-04-08T02:09:38;101748.24;;;14.70;54.10
52291;BME280;39663;45.432;28.050;2023-04-08T02:10:10;101747.89;;;14.50;54.04
52291;BME280;39663;45.432;28.050;2023-04-08T02:10:41;101748.86;;;14.52;54.08
52291;BME280;39663;45.432;28.050;2023-04-08T02:11:13;101747.08;;;14.46;54.36
52291;BME280;39663;45.432;28.050;2023-04-08T02:11:44;101746.92;;;14.47;54.28
52291;BME280;39663;45.432;28.050;2023-04-08T02:12:16;101746.75;;;14.47;54.19
52291;BME280;39663;45.432;28.050;2023-04-08T02:12:47;101747.43;;;14.52;54.15
52291;BME280;39663;45.432;28.050;2023-04-08T02:13:19;101747.72;;;14.28;53.96
52291;BME280;39663;45.432;28.050;2023-04-08T02:13:51;101745.76;;;14.45;54.24
52291;BME280;39663;45.432;28.050;2023-04-08T02:14:23;101747.46;;;14.65;54.32
52291;BME280;39663;45.432;28.050;2023-04-08T02:14:54;101747.64;;;14.44;54.04
52291;BME280;39663;45.432;28.050;2023-04-08T02:15:28;101746.78;;;14.68;54.25
52291;BME280;39663;45.432;28.050;2023-04-08T02:16:10;101746.20;;;14.45;54.38
52291;BME280;39663;45.432;28.050;2023-04-08T02:16:51;101747.56;;;14.70;54.26
52291;BME280;39663;45.432;28.050;2023-04-08T02:17:28;101746.66;;;14.65;54.11
52291;BME280;39663;45.432;28.050;2023-04-08T02:18:07;101745.99;;;14.46;54.15
52291;BME280;39663;45.432;28.050;2023-04-08T02:18:43;101747.16;;;14.52;54.03
52291;BME280;39663;45.432;28.050;2023-04-08T02:19:22;101747.95;;;14.45;54.08
52291;BME280;39663;45.432;28.050;2023-04-08T02:19:59;101745.92;;;14.68;53.97
52291;BME280;39663;45.432;28.050;2023-04-08T02:20:37;101745.92;;;14.25;54.08
52291;BME280;39663;45.432;28.050;2023-04-08T02:21:14;101746.62;;;14.49;54.13
52291;BME280;39663;45.432;28.050;2023-04-08T02:21:48;101746.27;;;14.62;54.06
52291;BME280;39663;45.432;28.050;2023-04-08T02:22:28;101747.23;;;14.34;54.16
52291;BME280;39663;45.432;28.050;2023-04-08T02:23:06;101747.27;;;14.43;54.08
52291;BME280;39663;45.432;28.050;2023-04-08T02:23:40;101748.11;;;14.43;54.13
52291;BME280;39663;45.432;28.050;2023-04-08T02:24:13;101748.54;;;14.22;54.18
52291;BME280;39663;45.432;28.050;2023-04-08T02:24:47;101747.04;;;14.65;53.82
52291;BME280;39663;45.432;28.050;2023-04-08T02:25:23;101748.07;;;14.46;54.16
52291;BME280;39663;45.432;28.050;2023-04-08T02:25:55;101747.91;;;14.45;54.14
52291;BME280;39663;45.432;28.050;2023-04-08T02:26:27;101748.82;;;14.42;54.05
52291;BME280;39663;45.432;28.050;2023-04-08T02:26:59;101750.62;;;14.61;54.07
52291;BME280;39663;45.432;28.050;2023-04-08T02:27:33;101748.27;;;14.21;53.87
52291;BME280;39663;45.432;28.050;2023-04-08T02:28:08;101748.10;;;14.59;53.91
52291;BME280;39663;45.432;28.050;2023-04-08T02:28:41;101747.51;;;14.45;54.19
52291;BME280;39663;45.432;28.050;2023-04-08T02:29:14;101747.23;;;14.21;54.15
52291;BME280;39663;45.432;28.050;2023-04-08T02:29:46;101749.07;;;14.58;54.03
52291;BME280;39663;45.432;28.050;2023-04-08T02:30:21;101748.70;;;14.58;53.92
52291;BME280;39663;45.432;28.050;2023-04-08T02:30:53;101746.45;;;14.45;54.05
52291;BME280;39663;45.432;28.050;2023-04-08T02:31:26;101748.29;;;14.40;53.79
52291;BME280;39663;45.432;28.050;2023-04-08T02:31:58;101748.18;;;14.41;54.00
52291;BME280;39663;45.432;28.050;2023-04-08T02:32:32;101747.93;;;14.44;53.86
52291;BME280;39663;45.432;28.050;2023-04-08T02:33:05;101745.47;;;14.44;54.04
52291;BME280;39663;45.432;28.050;2023-04-08T02:33:38;101744.38;;;14.40;54.21
52291;BME280;39663;45.432;28.050;2023-04-08T02:34:10;101744.86;;;14.41;54.08
52291;BME280;39663;45.432;28.050;2023-04-08T02:34:42;101744.01;;;14.40;54.11
52291;BME280;39663;45.432;28.050;2023-04-08T02:35:14;101744.36;;;14.58;53.84
52291;BME280;39663;45.432;28.050;2023-04-08T02:35:48;101744.11;;;14.40;53.93
52291;BME280;39663;45.432;28.050;2023-04-08T02:36:20;101743.56;;;14.59;54.04
52291;BME280;39663;45.432;28.050;2023-04-08T02:36:52;101740.53;;;14.39;54.34
52291;BME280;39663;45.432;28.050;2023-04-08T02:37:24;101741.85;;;14.62;54.30
52291;BME280;39663;45.432;28.050;2023-04-08T02:37:55;101740.19;;;14.63;54.00
52291;BME280;39663;45.432;28.050;2023-04-08T02:38:27;101740.05;;;14.62;54.12
52291;BME280;39663;45.432;28.050;2023-04-08T02:38:58;101739.33;;;14.57;54.32
52291;BME280;39663;45.432;28.050;2023-04-08T02:39:31;101739.63;;;14.38;54.05
52291;BME280;39663;45.432;28.050;2023-04-08T02:40:03;101740.07;;;14.42;53.74
52291;BME280;39663;45.432;28.050;2023-04-08T02:40:34;101740.30;;;14.62;53.65
52291;BME280;39663;45.432;28.050;2023-04-08T02:41:06;101740.34;;;14.37;53.44
52291;BME280;39663;45.432;28.050;2023-04-08T02:41:37;101739.70;;;14.61;53.67
52291;BME280;39663;45.432;28.050;2023-04-08T02:42:08;101740.26;;;14.54;53.32
52291;BME280;39663;45.432;28.050;2023-04-08T02:42:40;101737.95;;;14.34;53.42
52291;BME280;39663;45.432;28.050;2023-04-08T02:43:11;101739.84;;;14.31;53.19
52291;BME280;39663;45.432;28.050;2023-04-08T02:43:42;101740.11;;;14.51;53.51
52291;BME280;39663;45.432;28.050;2023-04-08T02:44:14;101739.10;;;14.32;53.48
52291;BME280;39663;45.432;28.050;2023-04-08T02:44:45;101739.30;;;14.31;53.46
52291;BME280;39663;45.432;28.050;2023-04-08T02:45:17;101737.86;;;14.35;53.60
52291;BME280;39663;45.432;28.050;2023-04-08T02:45:48;101736.86;;;14.36;53.32
52291;BME280;39663;45.432;28.050;2023-04-08T02:46:19;101736.42;;;14.31;53.49
52291;BME280;39663;45.432;28.050;2023-04-08T02:46:51;101736.37;;;14.29;52.93
52291;BME280;39663;45.432;28.050;2023-04-08T02:47:22;101735.42;;;14.47;52.84
52291;BME280;39663;45.432;28.050;2023-04-08T02:47:54;101737.93;;;14.45;53.18
52291;BME280;39663;45.432;28.050;2023-04-08T02:48:26;101737.86;;;14.44;53.42
52291;BME280;39663;45.432;28.050;2023-04-08T02:48:57;101737.21;;;14.43;53.47
52291;BME280;39663;45.432;28.050;2023-04-08T02:49:28;101737.93;;;14.30;53.63
52291;BME280;39663;45.432;28.050;2023-04-08T02:50:00;101737.11;;;14.43;53.09
52291;BME280;39663;45.432;28.050;2023-04-08T02:50:31;101737.96;;;14.41;53.15
52291;BME280;39663;45.432;28.050;2023-04-08T02:51:03;101737.92;;;14.28;53.20
52291;BME280;39663;45.432;28.050;2023-04-08T02:51:34;101738.46;;;14.20;53.78
52291;BME280;39663;45.432;28.050;2023-04-08T02:52:05;101736.85;;;14.49;53.17
52291;BME280;39663;45.432;28.050;2023-04-08T02:52:37;101738.32;;;14.23;52.75
52291;BME280;39663;45.432;28.050;2023-04-08T02:53:08;101736.65;;;14.54;52.74
52291;BME280;39663;45.432;28.050;2023-04-08T02:53:40;101739.18;;;14.38;53.30
52291;BME280;39663;45.432;28.050;2023-04-08T02:54:11;101736.86;;;14.28;53.55
52291;BME280;39663;45.432;28.050;2023-04-08T02:54:42;101736.59;;;14.42;53.46
52291;BME280;39663;45.432;28.050;2023-04-08T02:55:14;101737.18;;;14.42;53.51
52291;BME280;39663;45.432;28.050;2023-04-08T02:55:45;101736.18;;;14.42;53.37